createdAt,value
2023-02-01T00:00:07.082Z,8.70
2023-02-01T00:02:33.643Z,8.60
2023-02-01T00:05:00.142Z,8.70
2023-02-01T00:07:26.628Z,8.70
2023-02-01T00:09:53.134Z,8.70
2023-02-01T00:12:19.598Z,8.60
2023-02-01T00:14:46.083Z,8.60
2023-02-01T00:17:12.574Z,8.50
2023-02-01T00:19:39.164Z,8.50
2023-02-01T00:22:05.642Z,8.50
2023-02-01T00:24:32.158Z,8.60
2023-02-01T00:26:58.661Z,8.60
2023-02-01T00:29:25.137Z,8.70
2023-02-01T00:31:51.698Z,8.60
2023-02-01T00:34:18.204Z,8.50
2023-02-01T00:36:44.703Z,8.60
2023-02-01T00:39:11.207Z,8.50
2023-02-01T00:41:37.699Z,8.50
2023-02-01T00:44:04.186Z,8.50
2023-02-01T00:46:30.708Z,8.50
2023-02-01T00:48:57.180Z,8.50
2023-02-01T00:51:23.657Z,8.50
2023-02-01T00:53:50.124Z,8.50
2023-02-01T00:56:16.596Z,8.50
2023-02-01T00:58:45.634Z,8.60
2023-02-01T01:01:12.510Z,8.50
2023-02-01T01:03:39.008Z,8.40
2023-02-01T01:06:05.527Z,8.40
2023-02-01T01:08:32.034Z,8.40
2023-02-01T01:10:58.534Z,8.40
2023-02-01T01:13:25.036Z,8.40
2023-02-01T01:15:51.510Z,8.50
2023-02-01T01:18:18.009Z,8.40
2023-02-01T01:20:44.509Z,8.40
2023-02-01T01:23:11.009Z,8.40
2023-02-01T01:25:37.509Z,8.50
2023-02-01T01:28:03.999Z,8.50
2023-02-01T01:30:30.537Z,8.50
2023-02-01T01:32:57.084Z,8.50
2023-02-01T01:35:23.581Z,8.60
2023-02-01T01:37:50.079Z,8.60
2023-02-01T01:40:16.571Z,8.50
2023-02-01T01:42:43.045Z,8.50
2023-02-01T01:45:09.543Z,8.50
2023-02-01T01:47:36.022Z,8.40
2023-02-01T01:50:02.545Z,8.40
2023-02-01T01:52:29.011Z,8.40
2023-02-01T01:54:55.475Z,8.50
2023-02-01T01:57:21.961Z,8.50
2023-02-01T01:59:48.449Z,8.40
2023-02-01T02:02:14.969Z,8.40
2023-02-01T02:04:41.456Z,8.40
2023-02-01T02:07:07.946Z,8.40
2023-02-01T02:09:34.418Z,8.50
2023-02-01T02:12:00.908Z,8.50
2023-02-01T02:14:27.407Z,8.40
2023-02-01T02:16:53.874Z,8.30
2023-02-01T02:19:20.344Z,8.40
2023-02-01T02:21:46.819Z,8.30
2023-02-01T02:24:13.279Z,8.40
2023-02-01T02:26:39.795Z,8.40
2023-02-01T02:29:06.276Z,8.50
2023-02-01T02:31:32.815Z,8.40
2023-02-01T02:33:59.358Z,8.40
2023-02-01T02:36:25.855Z,8.30
2023-02-01T02:38:57.035Z,8.30
2023-02-01T02:41:23.538Z,8.30
2023-02-01T02:43:50.005Z,8.20
2023-02-01T02:46:16.474Z,8.30
2023-02-01T02:48:42.940Z,8.40
2023-02-01T02:51:09.426Z,8.30
2023-02-01T02:53:35.904Z,8.30
2023-02-01T02:56:02.382Z,8.40
2023-02-01T02:58:28.869Z,8.10
2023-02-01T03:00:55.422Z,8.20
2023-02-01T03:03:21.912Z,8.20
2023-02-01T03:05:48.395Z,8.40
2023-02-01T03:08:14.860Z,8.20
2023-02-01T03:10:41.361Z,8.30
2023-02-01T03:13:07.831Z,8.30
2023-02-01T03:15:34.335Z,8.20
2023-02-01T03:18:00.803Z,8.30
2023-02-01T03:20:27.309Z,8.30
2023-02-01T03:22:53.787Z,8.40
2023-02-01T03:25:20.252Z,8.50
2023-02-01T03:27:50.909Z,8.40
2023-02-01T03:30:17.380Z,8.40
2023-02-01T03:32:43.857Z,8.30
2023-02-01T03:35:10.336Z,8.20
2023-02-01T03:37:36.833Z,8.20
2023-02-01T03:40:03.311Z,8.30
2023-02-01T03:42:29.787Z,8.30
2023-02-01T03:44:56.264Z,8.20
2023-02-01T03:47:22.734Z,8.30
2023-02-01T03:49:49.196Z,8.30
2023-02-01T03:52:15.700Z,8.30
2023-02-01T03:54:42.293Z,8.30
2023-02-01T03:57:08.773Z,8.30
2023-02-01T03:59:35.265Z,8.30
2023-02-01T04:02:01.813Z,8.30
2023-02-01T04:04:28.325Z,8.40
2023-02-01T04:06:54.791Z,8.30
2023-02-01T04:09:21.259Z,8.30
2023-02-01T04:11:47.747Z,8.10
2023-02-01T04:14:14.276Z,8.20
2023-02-01T04:16:40.780Z,8.20
2023-02-01T04:19:07.270Z,8.20
2023-02-01T04:21:33.771Z,8.10
2023-02-01T04:24:00.248Z,8.10
2023-02-01T04:26:26.793Z,8.20
2023-02-01T04:28:53.305Z,8.20
2023-02-01T04:31:19.844Z,8.20
2023-02-01T04:33:46.351Z,8.10
2023-02-01T04:36:12.841Z,8.10
2023-02-01T04:38:39.311Z,8.00
2023-02-01T04:41:05.796Z,8.10
2023-02-01T04:43:32.297Z,8.20
2023-02-01T04:45:58.852Z,8.10
2023-02-01T04:48:25.344Z,8.10
2023-02-01T04:50:51.828Z,8.20
2023-02-01T04:53:18.312Z,8.20
2023-02-01T04:55:44.808Z,8.20
2023-02-01T04:58:11.285Z,8.10
2023-02-01T05:00:37.790Z,8.10
2023-02-01T05:03:04.262Z,8.10
2023-02-01T05:05:30.755Z,8.10
2023-02-01T05:07:57.251Z,8.10
2023-02-01T05:10:24.020Z,8.10
2023-02-01T05:12:50.749Z,8.10
2023-02-01T05:15:17.233Z,8.20
2023-02-01T05:17:43.726Z,8.20
2023-02-01T05:20:10.210Z,8.20
2023-02-01T05:22:36.700Z,8.20
2023-02-01T05:25:03.189Z,8.20
2023-02-01T05:27:29.679Z,8.10
2023-02-01T05:29:56.149Z,8.10
2023-02-01T05:32:23.361Z,8.10
2023-02-01T05:34:49.974Z,8.10
2023-02-01T05:37:16.480Z,8.20
2023-02-01T05:39:43.125Z,8.20
2023-02-01T05:42:15.033Z,8.10
2023-02-01T05:44:41.510Z,8.10
2023-02-01T05:47:07.988Z,8.10
2023-02-01T05:49:34.455Z,8.10
2023-02-01T05:52:00.943Z,8.10
2023-02-01T05:54:27.416Z,8.20
2023-02-01T05:56:53.897Z,8.20
2023-02-01T05:59:20.381Z,8.20
2023-02-01T06:01:46.860Z,8.20
2023-02-01T06:04:13.376Z,8.20
2023-02-01T06:06:39.896Z,8.00
2023-02-01T06:09:06.377Z,8.30
2023-02-01T06:11:33.378Z,8.20
2023-02-01T06:13:59.955Z,8.20
2023-02-01T06:16:26.502Z,8.20
2023-02-01T06:18:53.068Z,8.10
2023-02-01T06:21:19.544Z,8.00
2023-02-01T06:23:46.022Z,8.10
2023-02-01T06:26:12.500Z,8.10
2023-02-01T06:28:38.983Z,8.00
2023-02-01T06:31:05.535Z,8.10
2023-02-01T06:33:32.081Z,8.10
2023-02-01T06:35:58.578Z,8.10
2023-02-01T06:38:25.049Z,8.00
2023-02-01T06:40:51.525Z,8.10
2023-02-01T06:43:18.013Z,8.10
2023-02-01T06:45:44.491Z,8.20
2023-02-01T06:48:11.009Z,8.20
2023-02-01T06:50:37.504Z,8.10
2023-02-01T06:53:04.005Z,8.10
2023-02-01T06:55:30.488Z,8.10
2023-02-01T06:57:56.981Z,8.10
2023-02-01T07:00:23.756Z,8.10
2023-02-01T07:02:50.523Z,8.20
2023-02-01T07:05:16.998Z,8.30
2023-02-01T07:07:43.523Z,8.10
2023-02-01T07:10:09.998Z,8.20
2023-02-01T07:12:36.488Z,8.00
2023-02-01T07:15:02.939Z,8.10
2023-02-01T07:17:29.437Z,8.20
2023-02-01T07:19:55.987Z,8.10
2023-02-01T07:22:22.474Z,8.00
2023-02-01T07:24:48.960Z,8.00
2023-02-01T07:27:15.441Z,8.00
2023-02-01T07:29:41.931Z,8.10
2023-02-01T07:32:08.422Z,8.00
2023-02-01T07:34:34.916Z,8.10
2023-02-01T07:37:01.385Z,8.20
2023-02-01T07:39:27.879Z,8.20
2023-02-01T07:41:54.364Z,8.00
2023-02-01T07:44:20.859Z,8.10
2023-02-01T07:46:51.138Z,8.10
2023-02-01T07:49:17.616Z,8.10
2023-02-01T07:51:44.076Z,8.20
2023-02-01T07:54:10.532Z,8.00
2023-02-01T07:56:36.991Z,8.10
2023-02-01T07:59:03.494Z,8.10
2023-02-01T08:01:29.966Z,8.20
2023-02-01T08:03:56.475Z,8.20
2023-02-01T08:06:22.958Z,8.00
2023-02-01T08:08:49.449Z,8.00
2023-02-01T08:11:15.948Z,8.20
2023-02-01T08:13:45.180Z,8.10
2023-02-01T08:16:11.689Z,8.10
2023-02-01T08:18:38.199Z,8.10
2023-02-01T08:21:04.691Z,8.10
2023-02-01T08:23:31.198Z,8.20
2023-02-01T08:25:57.685Z,8.20
2023-02-01T08:28:24.169Z,8.10
2023-02-01T08:30:50.683Z,8.20
2023-02-01T08:33:17.171Z,8.10
2023-02-01T08:35:44.365Z,8.10
2023-02-01T08:38:10.914Z,8.00
2023-02-01T08:40:37.381Z,8.00
2023-02-01T08:43:03.860Z,8.10
2023-02-01T08:45:30.343Z,8.10
2023-02-01T08:47:56.819Z,8.20
2023-02-01T08:50:23.509Z,8.30
2023-02-01T08:52:50.236Z,8.40
2023-02-01T08:55:16.739Z,8.40
2023-02-01T08:57:43.234Z,8.40
2023-02-01T09:00:09.743Z,8.40
2023-02-01T09:02:36.236Z,8.30
2023-02-01T09:05:02.748Z,8.30
2023-02-01T09:07:29.216Z,8.30
2023-02-01T09:09:55.709Z,8.30
2023-02-01T09:12:22.204Z,8.20
2023-02-01T09:14:48.745Z,8.10
2023-02-01T09:17:15.231Z,8.20
2023-02-01T09:19:43.088Z,8.20
2023-02-01T09:22:15.384Z,8.30
2023-02-01T09:24:41.892Z,8.30
2023-02-01T09:27:09.229Z,8.20
2023-02-01T09:29:35.755Z,8.30
2023-02-01T09:32:04.442Z,8.20
2023-02-01T09:34:31.259Z,8.30
2023-02-01T09:36:57.749Z,8.40
2023-02-01T09:39:24.221Z,8.30
2023-02-01T09:41:50.716Z,8.20
2023-02-01T09:44:17.202Z,8.20
2023-02-01T09:46:43.715Z,8.20
2023-02-01T09:49:10.220Z,8.30
2023-02-01T09:51:36.719Z,8.30
2023-02-01T09:54:03.184Z,8.40
2023-02-01T09:56:29.667Z,8.40
2023-02-01T09:58:56.132Z,8.30
2023-02-01T10:01:22.620Z,8.40
2023-02-01T10:03:49.227Z,8.40
2023-02-01T10:06:15.764Z,8.40
2023-02-01T10:08:42.239Z,8.30
2023-02-01T10:11:08.749Z,8.40
2023-02-01T10:13:35.229Z,8.30
2023-02-01T10:16:01.817Z,8.30
2023-02-01T10:18:28.375Z,8.40
2023-02-01T10:20:54.909Z,8.40
2023-02-01T10:23:33.249Z,8.30
2023-02-01T10:26:00.667Z,8.30
2023-02-01T10:28:27.169Z,8.40
2023-02-01T10:30:53.725Z,8.40
2023-02-01T10:33:20.238Z,8.30
2023-02-01T10:35:46.731Z,8.20
2023-02-01T10:38:13.214Z,8.30
2023-02-01T10:40:39.702Z,8.30
2023-02-01T10:43:06.184Z,8.40
2023-02-01T10:45:32.689Z,8.20
2023-02-01T10:47:59.178Z,8.30
2023-02-01T10:50:25.796Z,8.30
2023-02-01T10:52:52.344Z,8.30
2023-02-01T10:55:18.861Z,8.30
2023-02-01T10:57:45.331Z,8.30
2023-02-01T11:00:11.851Z,8.30
2023-02-01T11:02:38.354Z,8.40
2023-02-01T11:05:04.846Z,8.30
2023-02-01T11:07:31.326Z,8.40
2023-02-01T11:09:57.796Z,8.50
2023-02-01T11:12:24.302Z,8.40
2023-02-01T11:14:50.769Z,8.30
2023-02-01T11:17:17.267Z,8.40
2023-02-01T11:19:43.745Z,8.30
2023-02-01T11:22:10.244Z,8.40
2023-02-01T11:24:36.766Z,8.50
2023-02-01T11:27:05.797Z,8.50
2023-02-01T11:29:33.225Z,8.50
2023-02-01T11:31:59.723Z,8.50
2023-02-01T11:34:26.222Z,8.40
2023-02-01T11:36:52.700Z,8.40
2023-02-01T11:39:19.180Z,8.40
2023-02-01T11:41:45.669Z,8.60
2023-02-01T11:44:12.155Z,8.50
2023-02-01T11:46:38.730Z,8.50
2023-02-01T11:49:05.241Z,8.50
2023-02-01T11:51:31.743Z,8.50
2023-02-01T11:53:58.311Z,8.40
2023-02-01T11:56:24.795Z,8.50
2023-02-01T11:58:51.268Z,8.60
2023-02-01T12:01:17.781Z,8.60
2023-02-01T12:03:45.296Z,8.60
2023-02-01T12:06:13.889Z,8.50
2023-02-01T12:08:40.343Z,8.40
2023-02-01T12:11:06.845Z,8.50
2023-02-01T12:13:33.310Z,8.50
2023-02-01T12:15:59.824Z,8.50
2023-02-01T12:18:26.345Z,8.50
2023-02-01T12:20:52.845Z,8.40
2023-02-01T12:23:19.339Z,8.40
2023-02-01T12:25:45.854Z,8.40
2023-02-01T12:28:12.334Z,8.50
2023-02-01T12:30:38.864Z,8.50
2023-02-01T12:33:05.444Z,8.40
2023-02-01T12:35:31.924Z,8.50
2023-02-01T12:37:58.440Z,8.40
2023-02-01T12:40:25.263Z,8.60
2023-02-01T12:42:51.846Z,8.60
2023-02-01T12:45:21.507Z,8.50
2023-02-01T12:47:47.970Z,8.40
2023-02-01T12:50:14.477Z,8.50
2023-02-01T12:52:41.014Z,8.60
2023-02-01T12:55:07.504Z,8.60
2023-02-01T12:57:33.982Z,8.40
2023-02-01T13:00:00.458Z,8.50
2023-02-01T13:02:27.405Z,8.60
2023-02-01T13:04:53.881Z,8.50
2023-02-01T13:07:20.366Z,8.50
2023-02-01T13:09:46.884Z,8.50
2023-02-01T13:12:13.359Z,8.50
2023-02-01T13:14:39.835Z,8.40
2023-02-01T13:17:06.342Z,8.50
2023-02-01T13:19:32.825Z,8.50
2023-02-01T13:21:59.313Z,8.60
2023-02-01T13:24:25.821Z,8.60
2023-02-01T13:26:57.417Z,8.80
2023-02-01T13:29:23.874Z,8.60
2023-02-01T13:31:50.473Z,8.70
2023-02-01T13:34:17.805Z,8.60
2023-02-01T13:36:44.286Z,8.60
2023-02-01T13:39:10.920Z,8.60
2023-02-01T13:41:37.393Z,8.50
2023-02-01T13:44:03.873Z,8.60
2023-02-01T13:46:30.354Z,8.60
2023-02-01T13:48:56.955Z,8.50
2023-02-01T13:51:23.425Z,8.60
2023-02-01T13:53:49.896Z,8.60
2023-02-01T13:56:16.382Z,8.70
2023-02-01T13:58:42.884Z,8.70
2023-02-01T14:01:09.399Z,8.70
2023-02-01T14:03:35.904Z,8.70
2023-02-01T14:06:02.390Z,8.70
2023-02-01T14:08:28.862Z,8.70
2023-02-01T14:10:55.405Z,8.70
2023-02-01T14:13:21.880Z,8.80
2023-02-01T14:15:48.391Z,8.80
2023-02-01T14:18:14.896Z,8.70
2023-02-01T14:20:41.396Z,8.70
2023-02-01T14:23:07.892Z,8.90
2023-02-01T14:25:34.403Z,8.90
2023-02-01T14:28:00.901Z,8.80
2023-02-01T14:30:27.383Z,8.80
2023-02-01T14:32:53.859Z,8.90
2023-02-01T14:35:20.427Z,8.70
2023-02-01T14:37:46.953Z,8.80
2023-02-01T14:40:13.431Z,8.70
2023-02-01T14:42:39.886Z,8.70
2023-02-01T14:45:07.037Z,8.70
2023-02-01T14:47:33.518Z,8.80
2023-02-01T14:50:00.219Z,8.90
2023-02-01T14:52:26.765Z,8.80
2023-02-01T14:54:53.245Z,9.00
2023-02-01T14:57:19.734Z,9.10
2023-02-01T14:59:46.211Z,8.70
2023-02-01T15:02:12.685Z,8.90
2023-02-01T15:04:39.184Z,9.00
2023-02-01T15:07:05.652Z,9.00
2023-02-01T15:09:32.142Z,9.10
2023-02-01T15:11:58.641Z,8.80
2023-02-01T15:14:25.112Z,8.90
2023-02-01T15:16:51.571Z,8.90
2023-02-01T15:19:18.058Z,9.10
2023-02-01T15:21:44.532Z,8.90
2023-02-01T15:24:11.014Z,8.90
2023-02-01T15:26:37.515Z,8.90
2023-02-01T15:29:09.527Z,9.00
2023-02-01T15:31:36.071Z,8.90
2023-02-01T15:34:02.650Z,9.10
2023-02-01T15:36:29.132Z,9.10
2023-02-01T15:38:55.608Z,9.00
2023-02-01T15:41:22.101Z,9.00
2023-02-01T15:43:48.599Z,9.20
2023-02-01T15:46:15.079Z,9.20
2023-02-01T15:48:41.586Z,9.10
2023-02-01T15:51:08.082Z,9.20
2023-02-01T15:53:34.577Z,9.10
2023-02-01T15:56:01.051Z,9.20
2023-02-01T15:58:27.539Z,9.20
2023-02-01T16:00:54.022Z,9.10
2023-02-01T16:03:20.591Z,9.20
2023-02-01T16:05:47.092Z,9.10
2023-02-01T16:08:13.587Z,8.90
2023-02-01T16:10:40.070Z,8.90
2023-02-01T16:13:06.559Z,9.00
2023-02-01T16:15:33.107Z,9.00
2023-02-01T16:17:59.584Z,9.00
2023-02-01T16:20:26.073Z,9.10
2023-02-01T16:22:52.558Z,9.10
2023-02-01T16:25:19.034Z,9.10
2023-02-01T16:27:45.494Z,9.20
2023-02-01T16:30:11.984Z,9.30
2023-02-01T16:32:38.468Z,9.10
2023-02-01T16:35:04.993Z,9.20
2023-02-01T16:37:31.449Z,9.10
2023-02-01T16:39:57.908Z,9.30
2023-02-01T16:42:24.406Z,9.20
2023-02-01T16:44:50.880Z,9.20
2023-02-01T16:47:17.370Z,9.10
2023-02-01T16:49:43.854Z,9.20
2023-02-01T16:52:10.317Z,9.20
2023-02-01T16:54:36.796Z,9.20
2023-02-01T16:57:03.277Z,9.20
2023-02-01T16:59:29.738Z,9.30
2023-02-01T17:01:56.231Z,9.40
2023-02-01T17:04:22.731Z,9.20
2023-02-01T17:06:49.210Z,9.20
2023-02-01T17:09:15.699Z,9.10
2023-02-01T17:11:42.196Z,9.10
2023-02-01T17:14:08.668Z,8.80
2023-02-01T17:16:35.178Z,8.80
2023-02-01T17:19:01.696Z,8.80
2023-02-01T17:21:28.178Z,8.90
2023-02-01T17:23:54.684Z,9.00
2023-02-01T17:26:21.219Z,9.00
2023-02-01T17:28:47.746Z,8.70
2023-02-01T17:31:14.262Z,8.90
2023-02-01T17:33:40.743Z,8.90
2023-02-01T17:36:07.268Z,8.70
2023-02-01T17:38:33.741Z,8.50
2023-02-01T17:41:00.291Z,8.50
2023-02-01T17:43:26.805Z,8.50
2023-02-01T17:45:53.318Z,8.60
2023-02-01T17:48:19.813Z,8.70
2023-02-01T17:50:46.317Z,8.60
2023-02-01T17:53:12.795Z,8.60
2023-02-01T17:55:39.270Z,8.70
2023-02-01T17:58:05.751Z,8.70
2023-02-01T18:00:32.241Z,8.60
2023-02-01T18:02:58.755Z,8.70
2023-02-01T18:05:25.627Z,8.80
2023-02-01T18:07:52.387Z,8.90
2023-02-01T18:10:18.878Z,9.00
2023-02-01T18:12:45.376Z,8.90
2023-02-01T18:15:11.871Z,8.90
2023-02-01T18:17:38.352Z,8.90
2023-02-01T18:20:04.835Z,8.90
2023-02-01T18:22:31.319Z,8.90
2023-02-01T18:24:57.845Z,9.10
2023-02-01T18:27:25.035Z,9.10
2023-02-01T18:29:52.646Z,9.30
2023-02-01T18:32:19.134Z,9.20
2023-02-01T18:34:45.601Z,9.00
2023-02-01T18:37:12.088Z,8.80
2023-02-01T18:39:38.540Z,8.60
2023-02-01T18:42:05.025Z,8.50
2023-02-01T18:44:31.493Z,8.30
2023-02-01T18:46:57.968Z,8.40
2023-02-01T18:49:24.442Z,8.40
2023-02-01T18:51:50.900Z,8.40
2023-02-01T18:54:17.394Z,8.30
2023-02-01T18:56:43.900Z,8.40
2023-02-01T18:59:10.385Z,8.30
2023-02-01T19:01:38.260Z,8.30
2023-02-01T19:04:04.806Z,8.30
2023-02-01T19:06:33.507Z,8.30
2023-02-01T19:09:00.013Z,8.30
2023-02-01T19:11:26.509Z,8.30
2023-02-01T19:13:53.242Z,8.20
2023-02-01T19:16:19.732Z,8.20
2023-02-01T19:18:46.220Z,8.30
2023-02-01T19:21:12.713Z,8.40
2023-02-01T19:23:39.213Z,8.40
2023-02-01T19:26:05.707Z,8.50
2023-02-01T19:28:32.217Z,8.30
2023-02-01T19:30:58.795Z,8.30
2023-02-01T19:33:27.649Z,8.50
2023-02-01T19:35:54.134Z,8.50
2023-02-01T19:38:20.619Z,8.30
2023-02-01T19:40:47.143Z,8.30
2023-02-01T19:43:13.638Z,8.30
2023-02-01T19:45:40.184Z,8.20
2023-02-01T19:48:06.679Z,8.30
2023-02-01T19:50:33.196Z,8.20
2023-02-01T19:52:59.689Z,8.20
2023-02-01T19:55:26.411Z,8.30
2023-02-01T19:57:53.048Z,8.20
2023-02-01T20:00:18.675Z,8.30
2023-02-01T20:02:45.178Z,8.30
2023-02-01T20:05:11.708Z,8.20
2023-02-01T20:07:38.187Z,8.20
2023-02-01T20:10:04.689Z,8.10
2023-02-01T20:12:31.182Z,8.10
2023-02-01T20:14:57.651Z,8.00
2023-02-01T20:17:24.129Z,8.20
2023-02-01T20:19:50.599Z,8.20
2023-02-01T20:22:17.064Z,8.20
2023-02-01T20:24:43.539Z,8.20
2023-02-01T20:27:10.866Z,8.30
2023-02-01T20:29:37.350Z,8.30
2023-02-01T20:32:03.836Z,8.30
2023-02-01T20:34:30.313Z,8.10
2023-02-01T20:36:56.817Z,8.10
2023-02-01T20:39:23.300Z,8.10
2023-02-01T20:41:49.792Z,8.20
2023-02-01T20:44:16.280Z,8.20
2023-02-01T20:46:42.804Z,8.20
2023-02-01T20:49:09.298Z,8.20
2023-02-01T20:51:35.780Z,8.20
2023-02-01T20:54:02.246Z,8.20
2023-02-01T20:56:28.727Z,8.30
2023-02-01T20:58:55.209Z,8.20
2023-02-01T21:01:21.672Z,8.20
2023-02-01T21:03:48.146Z,8.30
2023-02-01T21:06:14.634Z,8.20
2023-02-01T21:08:45.831Z,8.30
2023-02-01T21:11:12.303Z,8.40
2023-02-01T21:13:38.788Z,8.40
2023-02-01T21:16:05.290Z,8.30
2023-02-01T21:18:32.179Z,8.30
2023-02-01T21:20:58.687Z,8.40
2023-02-01T21:23:25.170Z,8.50
2023-02-01T21:25:51.629Z,8.60
2023-02-01T21:28:18.102Z,8.50
2023-02-01T21:30:44.610Z,8.40
2023-02-01T21:33:11.087Z,8.50
2023-02-01T21:35:37.560Z,8.50
2023-02-01T21:38:04.050Z,8.50
2023-02-01T21:40:30.516Z,8.50
2023-02-01T21:42:57.005Z,8.40
2023-02-01T21:45:23.681Z,8.20
2023-02-01T21:47:50.335Z,8.20
2023-02-01T21:50:16.815Z,8.20
2023-02-01T21:52:43.567Z,8.30
2023-02-01T21:55:10.034Z,8.30
2023-02-01T21:57:36.497Z,8.20
2023-02-01T22:00:02.971Z,8.20
2023-02-01T22:02:29.505Z,8.30
2023-02-01T22:04:56.015Z,8.50
2023-02-01T22:07:22.484Z,8.50
2023-02-01T22:09:48.950Z,8.40
2023-02-01T22:12:15.432Z,8.40
2023-02-01T22:14:41.905Z,8.40
2023-02-01T22:17:08.376Z,8.30
2023-02-01T22:19:34.853Z,8.40
2023-02-01T22:22:01.331Z,8.30
2023-02-01T22:24:27.801Z,8.40
2023-02-01T22:26:54.288Z,8.40
2023-02-01T22:29:20.768Z,8.40
2023-02-01T22:31:52.188Z,8.30
2023-02-01T22:34:18.738Z,8.50
2023-02-01T22:36:45.289Z,8.10
2023-02-01T22:39:11.780Z,8.40
2023-02-01T22:41:38.260Z,8.50
2023-02-01T22:44:04.748Z,8.40
2023-02-01T22:46:31.285Z,8.40
2023-02-01T22:48:57.798Z,8.40
2023-02-01T22:51:24.290Z,8.40
2023-02-01T22:53:50.778Z,8.40
2023-02-01T22:56:17.256Z,8.30
2023-02-01T22:58:43.740Z,8.20
2023-02-01T23:01:10.197Z,8.40
2023-02-01T23:03:36.706Z,8.40
2023-02-01T23:06:03.237Z,8.50
2023-02-01T23:08:33.961Z,8.50
2023-02-01T23:11:00.442Z,8.50
2023-02-01T23:13:26.916Z,8.40
2023-02-01T23:15:53.397Z,8.40
2023-02-01T23:18:19.859Z,8.30
2023-02-01T23:20:46.321Z,8.40
2023-02-01T23:23:12.790Z,8.60
2023-02-01T23:25:39.255Z,8.50
2023-02-01T23:28:05.748Z,8.40
2023-02-01T23:30:32.279Z,8.50
2023-02-01T23:32:58.800Z,8.30
2023-02-01T23:35:25.711Z,8.40
2023-02-01T23:37:52.375Z,8.40
2023-02-01T23:40:18.871Z,8.50
2023-02-01T23:42:45.467Z,8.50
2023-02-01T23:45:11.934Z,8.50
2023-02-01T23:47:38.389Z,8.50
2023-02-01T23:50:04.896Z,8.50
2023-02-01T23:52:31.374Z,8.50
2023-02-01T23:54:57.870Z,8.60
2023-02-01T23:57:24.339Z,8.80
2023-02-01T23:59:50.816Z,8.80
